sensor_id;sensor_type;location;lat;lon;timestamp;P1;durP1;ratioP1;P2;durP2;ratioP2
6614;SDS011;3343;42.896;23.912;2022-09-12T00:03:50;2.90;;;2.37;;
6614;SDS011;3343;42.896;23.912;2022-09-12T00:06:18;2.57;;;2.27;;
6614;SDS011;3343;42.896;23.912;2022-09-12T00:08:47;4.50;;;2.70;;
6614;SDS011;3343;42.896;23.912;2022-09-12T00:11:14;2.77;;;2.50;;
6614;SDS011;3343;42.896;23.912;2022-09-12T00:13:42;3.13;;;2.60;;
6614;SDS011;3343;42.896;23.912;2022-09-12T00:16:15;3.00;;;2.43;;
6614;SDS011;3343;42.896;23.912;2022-09-12T00:18:46;3.43;;;2.70;;
6614;SDS011;3343;42.896;23.912;2022-09-12T00:21:13;4.67;;;2.40;;
6614;SDS011;3343;42.896;23.912;2022-09-12T00:23:41;4.50;;;2.80;;
6614;SDS011;3343;42.896;23.912;2022-09-12T00:26:08;2.87;;;2.43;;
6614;SDS011;3343;42.896;23.912;2022-09-12T00:28:37;3.53;;;2.87;;
6614;SDS011;3343;42.896;23.912;2022-09-12T00:31:05;3.73;;;2.53;;
6614;SDS011;3343;42.896;23.912;2022-09-12T00:33:34;4.13;;;2.60;;
6614;SDS011;3343;42.896;23.912;2022-09-12T00:36:04;2.50;;;1.97;;
6614;SDS011;3343;42.896;23.912;2022-09-12T00:38:32;2.60;;;2.23;;
6614;SDS011;3343;42.896;23.912;2022-09-12T00:41:03;2.77;;;2.13;;
6614;SDS011;3343;42.896;23.912;2022-09-12T00:43:33;2.53;;;2.03;;
6614;SDS011;3343;42.896;23.912;2022-09-12T00:46:04;2.60;;;2.07;;
6614;SDS011;3343;42.896;23.912;2022-09-12T00:48:38;2.10;;;1.90;;
6614;SDS011;3343;42.896;23.912;2022-09-12T00:51:10;2.53;;;2.17;;
6614;SDS011;3343;42.896;23.912;2022-09-12T00:53:38;4.83;;;2.73;;
6614;SDS011;3343;42.896;23.912;2022-09-12T00:56:07;5.77;;;2.10;;
6614;SDS011;3343;42.896;23.912;2022-09-12T00:58:35;3.63;;;2.00;;
6614;SDS011;3343;42.896;23.912;2022-09-12T01:01:08;2.23;;;2.03;;
6614;SDS011;3343;42.896;23.912;2022-09-12T01:03:35;3.57;;;2.00;;
6614;SDS011;3343;42.896;23.912;2022-09-12T01:06:04;3.20;;;2.37;;
6614;SDS011;3343;42.896;23.912;2022-09-12T01:08:37;2.20;;;2.00;;
6614;SDS011;3343;42.896;23.912;2022-09-12T01:11:07;5.47;;;1.90;;
6614;SDS011;3343;42.896;23.912;2022-09-12T01:13:37;2.13;;;1.93;;
6614;SDS011;3343;42.896;23.912;2022-09-12T01:16:05;4.80;;;2.00;;
6614;SDS011;3343;42.896;23.912;2022-09-12T01:18:36;3.07;;;2.23;;
6614;SDS011;3343;42.896;23.912;2022-09-12T01:21:15;3.60;;;2.07;;
6614;SDS011;3343;42.896;23.912;2022-09-12T01:27:11;2.10;;;1.80;;
6614;SDS011;3343;42.896;23.912;2022-09-12T01:30:15;3.77;;;2.10;;
6614;SDS011;3343;42.896;23.912;2022-09-12T01:33:04;1.93;;;1.83;;
6614;SDS011;3343;42.896;23.912;2022-09-12T01:35:42;1.87;;;1.73;;
6614;SDS011;3343;42.896;23.912;2022-09-12T01:38:19;3.43;;;1.80;;
6614;SDS011;3343;42.896;23.912;2022-09-12T01:40:55;5.00;;;2.10;;
6614;SDS011;3343;42.896;23.912;2022-09-12T01:43:29;3.97;;;2.20;;
6614;SDS011;3343;42.896;23.912;2022-09-12T01:46:05;2.00;;;1.80;;
6614;SDS011;3343;42.896;23.912;2022-09-12T01:48:37;2.07;;;1.87;;
6614;SDS011;3343;42.896;23.912;2022-09-12T01:51:11;2.63;;;1.90;;
6614;SDS011;3343;42.896;23.912;2022-09-12T01:53:43;2.30;;;2.10;;
6614;SDS011;3343;42.896;23.912;2022-09-12T01:56:14;2.00;;;1.70;;
6614;SDS011;3343;42.896;23.912;2022-09-12T01:58:47;6.90;;;2.20;;
6614;SDS011;3343;42.896;23.912;2022-09-12T02:01:19;2.60;;;1.73;;
6614;SDS011;3343;42.896;23.912;2022-09-12T02:03:51;3.43;;;2.00;;
6614;SDS011;3343;42.896;23.912;2022-09-12T02:06:24;2.23;;;1.80;;
6614;SDS011;3343;42.896;23.912;2022-09-12T02:08:55;2.53;;;2.00;;
6614;SDS011;3343;42.896;23.912;2022-09-12T02:11:26;5.93;;;1.70;;
6614;SDS011;3343;42.896;23.912;2022-09-12T02:13:58;1.70;;;1.50;;
6614;SDS011;3343;42.896;23.912;2022-09-12T02:16:32;1.70;;;1.60;;
6614;SDS011;3343;42.896;23.912;2022-09-12T02:19:05;2.43;;;1.70;;
6614;SDS011;3343;42.896;23.912;2022-09-12T02:21:35;3.90;;;2.27;;
6614;SDS011;3343;42.896;23.912;2022-09-12T02:24:06;2.10;;;1.83;;
6614;SDS011;3343;42.896;23.912;2022-09-12T02:26:36;1.73;;;1.63;;
6614;SDS011;3343;42.896;23.912;2022-09-12T02:29:09;1.90;;;1.70;;
6614;SDS011;3343;42.896;23.912;2022-09-12T02:31:39;2.70;;;2.27;;
6614;SDS011;3343;42.896;23.912;2022-09-12T02:34:12;2.70;;;1.90;;
6614;SDS011;3343;42.896;23.912;2022-09-12T02:36:51;2.10;;;1.80;;
6614;SDS011;3343;42.896;23.912;2022-09-12T02:39:27;2.47;;;1.97;;
6614;SDS011;3343;42.896;23.912;2022-09-12T02:41:55;4.47;;;2.40;;
6614;SDS011;3343;42.896;23.912;2022-09-12T02:44:25;3.30;;;2.10;;
6614;SDS011;3343;42.896;23.912;2022-09-12T02:46:57;2.40;;;1.97;;
6614;SDS011;3343;42.896;23.912;2022-09-12T02:49:28;2.90;;;2.20;;
6614;SDS011;3343;42.896;23.912;2022-09-12T02:51:55;2.10;;;1.90;;
6614;SDS011;3343;42.896;23.912;2022-09-12T02:54:23;2.00;;;1.67;;
6614;SDS011;3343;42.896;23.912;2022-09-12T02:56:50;3.37;;;1.97;;
6614;SDS011;3343;42.896;23.912;2022-09-12T02:59:18;2.27;;;1.80;;
6614;SDS011;3343;42.896;23.912;2022-09-12T03:01:55;1.70;;;1.60;;
6614;SDS011;3343;42.896;23.912;2022-09-12T03:04:43;9.17;;;2.37;;
6614;SDS011;3343;42.896;23.912;2022-09-12T03:07:24;2.70;;;1.80;;
6614;SDS011;3343;42.896;23.912;2022-09-12T03:10:02;1.80;;;1.60;;
6614;SDS011;3343;42.896;23.912;2022-09-12T03:12:39;8.50;;;2.00;;
6614;SDS011;3343;42.896;23.912;2022-09-12T03:15:20;2.37;;;1.63;;
6614;SDS011;3343;42.896;23.912;2022-09-12T03:18:00;1.87;;;1.67;;
6614;SDS011;3343;42.896;23.912;2022-09-12T03:20:38;1.90;;;1.70;;
6614;SDS011;3343;42.896;23.912;2022-09-12T03:23:12;1.70;;;1.60;;
6614;SDS011;3343;42.896;23.912;2022-09-12T03:25:46;2.10;;;1.90;;
6614;SDS011;3343;42.896;23.912;2022-09-12T03:28:17;3.87;;;1.83;;
6614;SDS011;3343;42.896;23.912;2022-09-12T03:30:46;2.83;;;1.90;;
6614;SDS011;3343;42.896;23.912;2022-09-12T03:33:17;2.10;;;1.80;;
6614;SDS011;3343;42.896;23.912;2022-09-12T03:35:46;2.10;;;1.90;;
6614;SDS011;3343;42.896;23.912;2022-09-12T03:38:14;2.13;;;1.53;;
6614;SDS011;3343;42.896;23.912;2022-09-12T03:40:41;2.10;;;1.60;;
6614;SDS011;3343;42.896;23.912;2022-09-12T03:43:09;1.80;;;1.70;;
6614;SDS011;3343;42.896;23.912;2022-09-12T03:45:36;1.90;;;1.67;;
6614;SDS011;3343;42.896;23.912;2022-09-12T03:48:04;4.43;;;2.07;;
6614;SDS011;3343;42.896;23.912;2022-09-12T03:50:32;1.63;;;1.53;;
6614;SDS011;3343;42.896;23.912;2022-09-12T03:53:00;1.97;;;1.50;;
6614;SDS011;3343;42.896;23.912;2022-09-12T03:55:27;2.07;;;1.77;;
6614;SDS011;3343;42.896;23.912;2022-09-12T03:57:53;5.23;;;1.77;;
6614;SDS011;3343;42.896;23.912;2022-09-12T04:00:21;1.70;;;1.47;;
6614;SDS011;3343;42.896;23.912;2022-09-12T04:02:51;1.53;;;1.43;;
6614;SDS011;3343;42.896;23.912;2022-09-12T04:05:19;1.83;;;1.70;;
6614;SDS011;3343;42.896;23.912;2022-09-12T04:07:47;2.13;;;1.50;;
6614;SDS011;3343;42.896;23.912;2022-09-12T04:10:14;1.60;;;1.50;;
6614;SDS011;3343;42.896;23.912;2022-09-12T04:12:41;1.70;;;1.50;;
6614;SDS011;3343;42.896;23.912;2022-09-12T04:15:09;1.67;;;1.57;;
6614;SDS011;3343;42.896;23.912;2022-09-12T04:17:36;1.50;;;1.40;;
6614;SDS011;3343;42.896;23.912;2022-09-12T04:20:04;3.50;;;1.40;;
6614;SDS011;3343;42.896;23.912;2022-09-12T04:22:32;1.63;;;1.30;;
6614;SDS011;3343;42.896;23.912;2022-09-12T04:25:04;1.40;;;1.30;;
6614;SDS011;3343;42.896;23.912;2022-09-12T04:27:31;2.13;;;1.50;;
6614;SDS011;3343;42.896;23.912;2022-09-12T04:29:59;2.80;;;1.70;;
6614;SDS011;3343;42.896;23.912;2022-09-12T04:32:27;2.80;;;1.87;;
6614;SDS011;3343;42.896;23.912;2022-09-12T04:34:55;5.63;;;1.90;;
6614;SDS011;3343;42.896;23.912;2022-09-12T04:37:22;2.60;;;2.13;;
6614;SDS011;3343;42.896;23.912;2022-09-12T04:39:49;6.27;;;2.37;;
6614;SDS011;3343;42.896;23.912;2022-09-12T04:42:21;3.90;;;2.00;;
6614;SDS011;3343;42.896;23.912;2022-09-12T04:44:49;2.67;;;1.80;;
6614;SDS011;3343;42.896;23.912;2022-09-12T04:47:16;3.23;;;2.77;;
6614;SDS011;3343;42.896;23.912;2022-09-12T04:49:43;2.83;;;2.37;;
6614;SDS011;3343;42.896;23.912;2022-09-12T04:52:10;4.30;;;3.07;;
6614;SDS011;3343;42.896;23.912;2022-09-12T04:54:37;3.37;;;2.90;;
6614;SDS011;3343;42.896;23.912;2022-09-12T04:57:05;4.63;;;3.03;;
6614;SDS011;3343;42.896;23.912;2022-09-12T04:59:34;4.00;;;3.20;;
6614;SDS011;3343;42.896;23.912;2022-09-12T05:02:01;5.40;;;3.47;;
6614;SDS011;3343;42.896;23.912;2022-09-12T05:04:29;3.20;;;2.43;;
6614;SDS011;3343;42.896;23.912;2022-09-12T05:06:57;3.40;;;2.50;;
6614;SDS011;3343;42.896;23.912;2022-09-12T05:09:24;2.47;;;2.17;;
6614;SDS011;3343;42.896;23.912;2022-09-12T05:11:51;2.53;;;2.20;;
6614;SDS011;3343;42.896;23.912;2022-09-12T05:14:18;3.23;;;2.23;;
6614;SDS011;3343;42.896;23.912;2022-09-12T05:16:47;2.63;;;1.83;;
6614;SDS011;3343;42.896;23.912;2022-09-12T05:19:14;2.83;;;2.00;;
6614;SDS011;3343;42.896;23.912;2022-09-12T05:21:41;3.77;;;1.90;;
6614;SDS011;3343;42.896;23.912;2022-09-12T05:24:09;2.30;;;2.07;;
6614;SDS011;3343;42.896;23.912;2022-09-12T05:26:37;2.17;;;1.80;;
6614;SDS011;3343;42.896;23.912;2022-09-12T05:29:04;2.87;;;1.90;;
6614;SDS011;3343;42.896;23.912;2022-09-12T05:31:31;2.80;;;1.97;;
6614;SDS011;3343;42.896;23.912;2022-09-12T05:33:59;3.20;;;2.30;;
6614;SDS011;3343;42.896;23.912;2022-09-12T05:36:29;3.10;;;2.37;;
6614;SDS011;3343;42.896;23.912;2022-09-12T05:38:57;2.90;;;2.20;;
6614;SDS011;3343;42.896;23.912;2022-09-12T05:41:26;2.40;;;1.93;;
6614;SDS011;3343;42.896;23.912;2022-09-12T05:43:55;2.43;;;2.10;;
6614;SDS011;3343;42.896;23.912;2022-09-12T05:46:37;2.57;;;1.97;;
6614;SDS011;3343;42.896;23.912;2022-09-12T05:52:30;2.20;;;2.00;;
6614;SDS011;3343;42.896;23.912;2022-09-12T05:54:57;2.50;;;2.07;;
6614;SDS011;3343;42.896;23.912;2022-09-12T06:00:47;4.17;;;2.03;;
6614;SDS011;3343;42.896;23.912;2022-09-12T06:03:14;4.30;;;2.40;;
6614;SDS011;3343;42.896;23.912;2022-09-12T06:05:41;2.63;;;1.97;;
6614;SDS011;3343;42.896;23.912;2022-09-12T06:08:10;1.85;;;1.60;;
6614;SDS011;3343;42.896;23.912;2022-09-12T06:10:36;1.90;;;1.55;;
6614;SDS011;3343;42.896;23.912;2022-09-12T06:13:04;3.45;;;1.80;;
6614;SDS011;3343;42.896;23.912;2022-09-12T06:15:32;1.75;;;1.35;;
6614;SDS011;3343;42.896;23.912;2022-09-12T06:17:59;4.25;;;1.88;;
6614;SDS011;3343;42.896;23.912;2022-09-12T06:20:26;1.90;;;1.60;;
6614;SDS011;3343;42.896;23.912;2022-09-12T06:22:53;1.95;;;1.73;;
6614;SDS011;3343;42.896;23.912;2022-09-12T06:25:21;1.70;;;1.60;;
6614;SDS011;3343;42.896;23.912;2022-09-12T06:27:48;2.67;;;2.00;;
6614;SDS011;3343;42.896;23.912;2022-09-12T06:30:15;2.25;;;1.27;;
6614;SDS011;3343;42.896;23.912;2022-09-12T06:32:42;1.70;;;1.60;;
6614;SDS011;3343;42.896;23.912;2022-09-12T06:35:09;1.10;;;1.00;;
6614;SDS011;3343;42.896;23.912;2022-09-12T06:37:36;1.27;;;1.17;;
6614;SDS011;3343;42.896;23.912;2022-09-12T06:40:04;1.70;;;1.33;;
6614;SDS011;3343;42.896;23.912;2022-09-12T06:42:35;1.20;;;1.10;;
6614;SDS011;3343;42.896;23.912;2022-09-12T06:45:02;1.67;;;1.30;;
6614;SDS011;3343;42.896;23.912;2022-09-12T06:47:30;1.58;;;1.20;;
6614;SDS011;3343;42.896;23.912;2022-09-12T06:49:57;1.20;;;1.10;;
6614;SDS011;3343;42.896;23.912;2022-09-12T06:52:24;11.05;;;1.30;;
6614;SDS011;3343;42.896;23.912;2022-09-12T06:54:51;1.30;;;1.20;;
6614;SDS011;3343;42.896;23.912;2022-09-12T06:57:18;1.27;;;1.17;;
6614;SDS011;3343;42.896;23.912;2022-09-12T06:59:46;2.00;;;1.20;;
6614;SDS011;3343;42.896;23.912;2022-09-12T07:02:13;1.00;;;0.90;;
6614;SDS011;3343;42.896;23.912;2022-09-12T07:04:40;1.00;;;1.00;;
6614;SDS011;3343;42.896;23.912;2022-09-12T07:07:07;1.05;;;0.95;;
6614;SDS011;3343;42.896;23.912;2022-09-12T07:09:35;1.30;;;1.00;;
6614;SDS011;3343;42.896;23.912;2022-09-12T07:12:02;1.20;;;1.10;;
6614;SDS011;3343;42.896;23.912;2022-09-12T07:14:30;1.17;;;1.08;;
6614;SDS011;3343;42.896;23.912;2022-09-12T07:16:59;3.10;;;1.00;;
6614;SDS011;3343;42.896;23.912;2022-09-12T07:19:26;1.23;;;1.13;;
6614;SDS011;3343;42.896;23.912;2022-09-12T07:21:52;0.95;;;0.90;;
6614;SDS011;3343;42.896;23.912;2022-09-12T07:24:20;0.98;;;0.93;;
6614;SDS011;3343;42.896;23.912;2022-09-12T07:26:47;1.17;;;1.08;;
6614;SDS011;3343;42.896;23.912;2022-09-12T07:29:14;0.90;;;0.90;;
6614;SDS011;3343;42.896;23.912;2022-09-12T07:31:42;0.93;;;0.93;;
6614;SDS011;3343;42.896;23.912;2022-09-12T07:34:11;1.52;;;0.90;;
6614;SDS011;3343;42.896;23.912;2022-09-12T07:36:38;0.73;;;0.73;;
6614;SDS011;3343;42.896;23.912;2022-09-12T07:39:05;1.17;;;1.08;;
6614;SDS011;3343;42.896;23.912;2022-09-12T07:41:33;1.10;;;1.00;;
6614;SDS011;3343;42.896;23.912;2022-09-12T07:44:01;1.33;;;0.90;;
6614;SDS011;3343;42.896;23.912;2022-09-12T07:46:30;1.35;;;0.80;;
6614;SDS011;3343;42.896;23.912;2022-09-12T07:48:58;0.80;;;0.80;;
6614;SDS011;3343;42.896;23.912;2022-09-12T07:51:28;0.80;;;0.80;;
6614;SDS011;3343;42.896;23.912;2022-09-12T07:53:56;0.85;;;0.85;;
6614;SDS011;3343;42.896;23.912;2022-09-12T07:56:24;0.90;;;0.90;;
6614;SDS011;3343;42.896;23.912;2022-09-12T07:58:53;0.90;;;0.90;;
6614;SDS011;3343;42.896;23.912;2022-09-12T08:01:20;0.70;;;0.70;;
6614;SDS011;3343;42.896;23.912;2022-09-12T08:03:48;0.98;;;0.88;;
6614;SDS011;3343;42.896;23.912;2022-09-12T08:06:19;0.85;;;0.80;;
6614;SDS011;3343;42.896;23.912;2022-09-12T08:08:50;1.10;;;1.00;;
6614;SDS011;3343;42.896;23.912;2022-09-12T08:11:20;0.85;;;0.85;;
6614;SDS011;3343;42.896;23.912;2022-09-12T08:13:47;1.10;;;1.00;;
6614;SDS011;3343;42.896;23.912;2022-09-12T08:16:17;1.10;;;1.00;;
6614;SDS011;3343;42.896;23.912;2022-09-12T08:18:46;0.85;;;0.85;;
6614;SDS011;3343;42.896;23.912;2022-09-12T08:21:14;0.88;;;0.88;;
6614;SDS011;3343;42.896;23.912;2022-09-12T08:23:42;1.02;;;0.80;;
6614;SDS011;3343;42.896;23.912;2022-09-12T08:26:12;1.77;;;1.27;;
6614;SDS011;3343;42.896;23.912;2022-09-12T08:28:42;1.15;;;1.05;;
6614;SDS011;3343;42.896;23.912;2022-09-12T08:31:11;1.20;;;1.10;;
6614;SDS011;3343;42.896;23.912;2022-09-12T08:33:39;1.02;;;1.00;;
6614;SDS011;3343;42.896;23.912;2022-09-12T08:36:07;1.17;;;1.08;;
6614;SDS011;3343;42.896;23.912;2022-09-12T08:38:37;0.93;;;0.93;;
6614;SDS011;3343;42.896;23.912;2022-09-12T08:41:07;1.23;;;1.13;;
6614;SDS011;3343;42.896;23.912;2022-09-12T08:43:51;1.17;;;1.00;;
6614;SDS011;3343;42.896;23.912;2022-09-12T08:46:31;1.20;;;1.10;;
6614;SDS011;3343;42.896;23.912;2022-09-12T08:49:03;1.52;;;1.13;;
6614;SDS011;3343;42.896;23.912;2022-09-12T08:51:35;0.80;;;0.80;;
6614;SDS011;3343;42.896;23.912;2022-09-12T08:54:05;1.30;;;;;
6614;SDS011;3343;42.896;23.912;2022-09-12T08:56:46;1.05;;;0.98;;
6614;SDS011;3343;42.896;23.912;2022-09-12T08:59:15;0.90;;;0.90;;
6614;SDS011;3343;42.896;23.912;2022-09-12T09:01:43;1.00;;;0.90;;
6614;SDS011;3343;42.896;23.912;2022-09-12T09:04:28;0.95;;;0.90;;
6614;SDS011;3343;42.896;23.912;2022-09-12T09:07:17;1.38;;;1.02;;
6614;SDS011;3343;42.896;23.912;2022-09-12T09:10:10;1.35;;;1.17;;
6614;SDS011;3343;42.896;23.912;2022-09-12T09:12:48;0.80;;;0.80;;
6614;SDS011;3343;42.896;23.912;2022-09-12T09:15:42;1.08;;;1.00;;
6614;SDS011;3343;42.896;23.912;2022-09-12T09:18:17;0.88;;;0.80;;
6614;SDS011;3343;42.896;23.912;2022-09-12T09:20:48;1.10;;;1.00;;
6614;SDS011;3343;42.896;23.912;2022-09-12T09:23:21;1.40;;;1.27;;
6614;SDS011;3343;42.896;23.912;2022-09-12T09:25:52;1.00;;;1.00;;
6614;SDS011;3343;42.896;23.912;2022-09-12T09:28:28;1.00;;;1.00;;
6614;SDS011;3343;42.896;23.912;2022-09-12T09:31:03;2.60;;;2.28;;
6614;SDS011;3343;42.896;23.912;2022-09-12T09:33:32;1.05;;;1.00;;
6614;SDS011;3343;42.896;23.912;2022-09-12T09:36:02;0.88;;;0.88;;
6614;SDS011;3343;42.896;23.912;2022-09-12T09:38:44;1.00;;;1.00;;
6614;SDS011;3343;42.896;23.912;2022-09-12T09:41:18;0.95;;;0.88;;
6614;SDS011;3343;42.896;23.912;2022-09-12T09:44:03;0.93;;;0.82;;
6614;SDS011;3343;42.896;23.912;2022-09-12T09:46:32;0.73;;;0.73;;
6614;SDS011;3343;42.896;23.912;2022-09-12T09:48:59;0.90;;;0.90;;
6614;SDS011;3343;42.896;23.912;2022-09-12T09:51:39;1.60;;;1.30;;
6614;SDS011;3343;42.896;23.912;2022-09-12T09:54:09;1.20;;;1.10;;
6614;SDS011;3343;42.896;23.912;2022-09-12T09:56:42;1.50;;;0.95;;
6614;SDS011;3343;42.896;23.912;2022-09-12T09:59:10;1.30;;;1.13;;
6614;SDS011;3343;42.896;23.912;2022-09-12T10:01:45;2.00;;;1.17;;
6614;SDS011;3343;42.896;23.912;2022-09-12T10:04:17;1.20;;;1.10;;
6614;SDS011;3343;42.896;23.912;2022-09-12T10:06:45;1.00;;;1.00;;
6614;SDS011;3343;42.896;23.912;2022-09-12T10:09:23;1.17;;;1.08;;
6614;SDS011;3343;42.896;23.912;2022-09-12T10:11:52;1.77;;;1.02;;
6614;SDS011;3343;42.896;23.912;2022-09-12T10:14:31;1.83;;;0.98;;
6614;SDS011;3343;42.896;23.912;2022-09-12T10:17:03;1.05;;;0.95;;
6614;SDS011;3343;42.896;23.912;2022-09-12T10:19:48;1.10;;;1.00;;
6614;SDS011;3343;42.896;23.912;2022-09-12T10:22:16;1.10;;;1.00;;
6614;SDS011;3343;42.896;23.912;2022-09-12T10:24:46;0.90;;;0.90;;
6614;SDS011;3343;42.896;23.912;2022-09-12T10:27:18;0.82;;;0.82;;
6614;SDS011;3343;42.896;23.912;2022-09-12T10:29:48;1.05;;;1.00;;
6614;SDS011;3343;42.896;23.912;2022-09-12T10:32:23;0.90;;;0.90;;
6614;SDS011;3343;42.896;23.912;2022-09-12T10:34:53;1.20;;;1.10;;
6614;SDS011;3343;42.896;23.912;2022-09-12T10:37:25;1.20;;;1.10;;
6614;SDS011;3343;42.896;23.912;2022-09-12T10:39:57;1.48;;;1.38;;
6614;SDS011;3343;42.896;23.912;2022-09-12T10:42:43;1.80;;;1.65;;
6614;SDS011;3343;42.896;23.912;2022-09-12T10:45:19;1.95;;;1.55;;
6614;SDS011;3343;42.896;23.912;2022-09-12T10:47:50;2.08;;;1.70;;
6614;SDS011;3343;42.896;23.912;2022-09-12T10:50:19;1.77;;;1.67;;
6614;SDS011;3343;42.896;23.912;2022-09-12T10:52:47;1.60;;;1.50;;
6614;SDS011;3343;42.896;23.912;2022-09-12T10:55:15;2.53;;;1.67;;
6614;SDS011;3343;42.896;23.912;2022-09-12T11:00:39;1.73;;;1.58;;
6614;SDS011;3343;42.896;23.912;2022-09-12T11:03:15;2.55;;;1.42;;
6614;SDS011;3343;42.896;23.912;2022-09-12T11:05:50;2.00;;;1.38;;
6614;SDS011;3343;42.896;23.912;2022-09-12T11:08:25;1.88;;;1.67;;
6614;SDS011;3343;42.896;23.912;2022-09-12T11:11:18;1.40;;;1.30;;
6614;SDS011;3343;42.896;23.912;2022-09-12T11:14:04;2.00;;;1.80;;
6614;SDS011;3343;42.896;23.912;2022-09-12T11:16:39;1.52;;;1.38;;
6614;SDS011;3343;42.896;23.912;2022-09-12T11:22:12;4.93;;;1.50;;
6614;SDS011;3343;42.896;23.912;2022-09-12T11:27:50;2.03;;;1.70;;
6614;SDS011;3343;42.896;23.912;2022-09-12T11:30:29;1.95;;;1.70;;
6614;SDS011;3343;42.896;23.912;2022-09-12T11:33:06;2.00;;;1.70;;
6614;SDS011;3343;42.896;23.912;2022-09-12T11:35:48;2.28;;;1.77;;
6614;SDS011;3343;42.896;23.912;2022-09-12T11:38:20;2.35;;;1.80;;
6614;SDS011;3343;42.896;23.912;2022-09-12T11:41:04;2.05;;;1.65;;
6614;SDS011;3343;42.896;23.912;2022-09-12T11:43:37;2.03;;;1.83;;
6614;SDS011;3343;42.896;23.912;2022-09-12T11:46:08;2.40;;;1.88;;
6614;SDS011;3343;42.896;23.912;2022-09-12T11:48:42;2.55;;;1.83;;
6614;SDS011;3343;42.896;23.912;2022-09-12T11:51:16;2.08;;;1.88;;
6614;SDS011;3343;42.896;23.912;2022-09-12T11:53:46;3.95;;;1.88;;
6614;SDS011;3343;42.896;23.912;2022-09-12T11:56:23;2.13;;;1.88;;
6614;SDS011;3343;42.896;23.912;2022-09-12T11:58:52;2.45;;;1.92;;
6614;SDS011;3343;42.896;23.912;2022-09-12T12:01:25;2.55;;;2.20;;
6614;SDS011;3343;42.896;23.912;2022-09-12T12:03:57;2.25;;;1.80;;
6614;SDS011;3343;42.896;23.912;2022-09-12T12:06:35;2.92;;;2.00;;
6614;SDS011;3343;42.896;23.912;2022-09-12T12:09:12;2.55;;;2.08;;
6614;SDS011;3343;42.896;23.912;2022-09-12T12:11:40;2.75;;;2.13;;
6614;SDS011;3343;42.896;23.912;2022-09-12T12:14:12;5.50;;;1.67;;
6614;SDS011;3343;42.896;23.912;2022-09-12T12:16:44;2.75;;;2.00;;
6614;SDS011;3343;42.896;23.912;2022-09-12T12:19:22;1.95;;;1.75;;
6614;SDS011;3343;42.896;23.912;2022-09-12T12:22:07;2.20;;;2.00;;
6614;SDS011;3343;42.896;23.912;2022-09-12T12:24:57;2.90;;;2.05;;
6614;SDS011;3343;42.896;23.912;2022-09-12T12:27:46;3.15;;;2.08;;
6614;SDS011;3343;42.896;23.912;2022-09-12T12:36:35;3.83;;;2.60;;
6614;SDS011;3343;42.896;23.912;2022-09-12T12:48:46;3.10;;;2.60;;
6614;SDS011;3343;42.896;23.912;2022-09-12T12:51:25;4.25;;;2.55;;
6614;SDS011;3343;42.896;23.912;2022-09-12T12:54:28;3.25;;;2.78;;
6614;SDS011;3343;42.896;23.912;2022-09-12T13:00:07;2.63;;;2.42;;
6614;SDS011;3343;42.896;23.912;2022-09-12T13:02:59;2.75;;;2.38;;
6614;SDS011;3343;42.896;23.912;2022-09-12T13:05:37;2.75;;;2.20;;
6614;SDS011;3343;42.896;23.912;2022-09-12T13:08:06;6.45;;;2.75;;
6614;SDS011;3343;42.896;23.912;2022-09-12T13:10:36;3.53;;;2.67;;
6614;SDS011;3343;42.896;23.912;2022-09-12T13:13:05;2.60;;;2.40;;
6614;SDS011;3343;42.896;23.912;2022-09-12T13:15:46;2.42;;;2.17;;
6614;SDS011;3343;42.896;23.912;2022-09-12T13:18:17;2.28;;;2.08;;
6614;SDS011;3343;42.896;23.912;2022-09-12T13:20:53;3.00;;;2.58;;
6614;SDS011;3343;42.896;23.912;2022-09-12T13:23:27;2.97;;;2.67;;
6614;SDS011;3343;42.896;23.912;2022-09-12T13:25:55;3.13;;;2.70;;
6614;SDS011;3343;42.896;23.912;2022-09-12T13:28:24;3.53;;;2.92;;
6614;SDS011;3343;42.896;23.912;2022-09-12T13:30:58;3.60;;;3.05;;
6614;SDS011;3343;42.896;23.912;2022-09-12T13:33:31;3.28;;;2.97;;
6614;SDS011;3343;42.896;23.912;2022-09-12T13:45:02;2.90;;;2.60;;
6614;SDS011;3343;42.896;23.912;2022-09-12T13:47:31;3.05;;;2.75;;
6614;SDS011;3343;42.896;23.912;2022-09-12T13:50:04;3.80;;;2.63;;
6614;SDS011;3343;42.896;23.912;2022-09-12T13:52:34;3.58;;;2.67;;
6614;SDS011;3343;42.896;23.912;2022-09-12T13:55:04;3.50;;;2.90;;
6614;SDS011;3343;42.896;23.912;2022-09-12T13:57:34;3.33;;;3.03;;
6614;SDS011;3343;42.896;23.912;2022-09-12T14:00:05;3.22;;;2.92;;
6614;SDS011;3343;42.896;23.912;2022-09-12T14:02:38;3.53;;;2.88;;
6614;SDS011;3343;42.896;23.912;2022-09-12T14:05:18;3.83;;;3.15;;
6614;SDS011;3343;42.896;23.912;2022-09-12T14:07:48;3.40;;;3.10;;
6614;SDS011;3343;42.896;23.912;2022-09-12T14:10:22;3.15;;;2.85;;
6614;SDS011;3343;42.896;23.912;2022-09-12T14:12:54;3.30;;;3.00;;
6614;SDS011;3343;42.896;23.912;2022-09-12T14:15:23;4.40;;;3.47;;
6614;SDS011;3343;42.896;23.912;2022-09-12T14:17:53;3.15;;;2.85;;
6614;SDS011;3343;42.896;23.912;2022-09-12T14:20:27;3.13;;;2.83;;
6614;SDS011;3343;42.896;23.912;2022-09-12T14:22:58;3.42;;;3.13;;
6614;SDS011;3343;42.896;23.912;2022-09-12T14:25:26;4.20;;;3.50;;
6614;SDS011;3343;42.896;23.912;2022-09-12T14:27:58;3.40;;;2.92;;
6614;SDS011;3343;42.896;23.912;2022-09-12T14:30:26;4.15;;;3.58;;
6614;SDS011;3343;42.896;23.912;2022-09-12T14:33:14;3.00;;;2.70;;
6614;SDS011;3343;42.896;23.912;2022-09-12T14:35:46;3.63;;;2.90;;
6614;SDS011;3343;42.896;23.912;2022-09-12T14:38:18;3.40;;;3.05;;
6614;SDS011;3343;42.896;23.912;2022-09-12T14:40:50;3.13;;;2.83;;
6614;SDS011;3343;42.896;23.912;2022-09-12T14:43:20;3.50;;;3.08;;
6614;SDS011;3343;42.896;23.912;2022-09-12T14:45:53;2.95;;;2.65;;
6614;SDS011;3343;42.896;23.912;2022-09-12T14:48:23;2.90;;;2.63;;
6614;SDS011;3343;42.896;23.912;2022-09-12T14:50:53;3.22;;;2.92;;
6614;SDS011;3343;42.896;23.912;2022-09-12T14:53:22;4.18;;;3.47;;
6614;SDS011;3343;42.896;23.912;2022-09-12T14:55:52;3.70;;;2.90;;
6614;SDS011;3343;42.896;23.912;2022-09-12T14:58:25;3.42;;;3.13;;
6614;SDS011;3343;42.896;23.912;2022-09-12T15:00:57;3.83;;;3.40;;
6614;SDS011;3343;42.896;23.912;2022-09-12T15:03:30;3.25;;;2.88;;
6614;SDS011;3343;42.896;23.912;2022-09-12T15:06:01;3.63;;;3.03;;
6614;SDS011;3343;42.896;23.912;2022-09-12T15:08:30;3.58;;;3.00;;
6614;SDS011;3343;42.896;23.912;2022-09-12T15:10:57;3.97;;;3.53;;
6614;SDS011;3343;42.896;23.912;2022-09-12T15:13:25;3.83;;;3.00;;
6614;SDS011;3343;42.896;23.912;2022-09-12T15:15:55;3.80;;;3.40;;
6614;SDS011;3343;42.896;23.912;2022-09-12T15:18:23;3.50;;;3.03;;
6614;SDS011;3343;42.896;23.912;2022-09-12T15:20:53;3.97;;;3.50;;
6614;SDS011;3343;42.896;23.912;2022-09-12T15:23:36;6.13;;;3.75;;
6614;SDS011;3343;42.896;23.912;2022-09-12T15:26:08;3.58;;;3.10;;
6614;SDS011;3343;42.896;23.912;2022-09-12T15:28:37;5.20;;;3.97;;
6614;SDS011;3343;42.896;23.912;2022-09-12T15:31:06;7.65;;;5.68;;
6614;SDS011;3343;42.896;23.912;2022-09-12T15:33:38;4.20;;;3.78;;
6614;SDS011;3343;42.896;23.912;2022-09-12T15:36:08;6.57;;;4.03;;
6614;SDS011;3343;42.896;23.912;2022-09-12T15:38:43;4.30;;;3.80;;
6614;SDS011;3343;42.896;23.912;2022-09-12T15:41:12;4.68;;;3.78;;
6614;SDS011;3343;42.896;23.912;2022-09-12T15:43:43;3.65;;;3.33;;
6614;SDS011;3343;42.896;23.912;2022-09-12T15:46:11;4.45;;;3.63;;
6614;SDS011;3343;42.896;23.912;2022-09-12T15:48:40;4.93;;;3.83;;
6614;SDS011;3343;42.896;23.912;2022-09-12T15:51:09;4.93;;;3.92;;
6614;SDS011;3343;42.896;23.912;2022-09-12T15:53:37;4.15;;;3.75;;
6614;SDS011;3343;42.896;23.912;2022-09-12T15:56:07;5.45;;;4.00;;
6614;SDS011;3343;42.896;23.912;2022-09-12T15:58:34;5.03;;;4.05;;
6614;SDS011;3343;42.896;23.912;2022-09-12T16:01:02;4.30;;;3.63;;
6614;SDS011;3343;42.896;23.912;2022-09-12T16:03:29;4.22;;;3.78;;
6614;SDS011;3343;42.896;23.912;2022-09-12T16:05:58;4.80;;;3.85;;
6614;SDS011;3343;42.896;23.912;2022-09-12T16:08:27;4.63;;;3.60;;
6614;SDS011;3343;42.896;23.912;2022-09-12T16:10:57;5.25;;;4.03;;
6614;SDS011;3343;42.896;23.912;2022-09-12T16:13:26;4.43;;;3.63;;
6614;SDS011;3343;42.896;23.912;2022-09-12T16:15:55;5.15;;;4.15;;
6614;SDS011;3343;42.896;23.912;2022-09-12T16:18:22;6.70;;;4.45;;